Time;durP1;ratioP1;P1;durP2;ratioP2;P2;SDS_P1;SDS_P2;PMS_P1;PMS_P2;Temp;Humidity;BMP_temperature;BMP_pressure;BME280_temperature;BME280_humidity;BME280_pressure;Samples;Min_cycle;Max_cycle;Signal;HPM_P1;HPM_P2
2022/03/28 00:02:20;;;;;;;;;;;;;;;24.03;42.44;168835.75;6315346;22;19925;-96
2022/03/28 00:04:50;;;;;;;;;;;;;;;24.02;42.54;168832.97;6315938;22;19919;-96
2022/03/28 00:07:16;;;;;;;;;;;;;;;24.03;42.46;168834.38;6318099;22;20219;-96
2022/03/28 00:09:43;;;;;;;;;;;;;;;24.00;42.79;168827.44;6315753;22;19925;-96
2022/03/28 00:12:10;;;;;;;;;;;;;;;24.02;42.80;168831.59;6340052;22;19941;-96
2022/03/28 00:14:37;;;;;;;;;;;;;;;24.02;42.60;168831.59;6346757;22;19919;-96
2022/03/28 00:17:05;;;;;;;;;;;;;;;24.03;42.66;168834.38;6346891;22;20235;-96
2022/03/28 00:19:33;;;;;;;;;;;;;;;23.98;42.99;168821.84;6321713;22;19942;-96
2022/03/28 00:22:00;;;;;;;;;;;;;;;23.99;43.35;168823.25;6346378;22;19926;-96
2022/03/28 00:24:27;;;;;;;;;;;;;;;24.02;42.94;168832.97;6321516;22;19926;-96
2022/03/28 00:26:55;;;;;;;;;;;;;;;24.04;42.97;168837.13;6345803;22;19919;-96
2022/03/28 00:29:22;;;;;;;;;;;;;;;23.99;43.10;168823.25;6320846;22;19918;-96
2022/03/28 00:31:49;;;;;;;;;;;;;;;23.98;43.46;168820.47;6345624;22;19962;-96
2022/03/28 00:34:21;;;;;;;;;;;;;;;24.02;43.30;168831.59;6345284;22;19919;-96
2022/03/28 00:36:50;;;;;;;;;;;;;;;24.01;43.41;168830.22;6320488;22;19930;-96
2022/03/28 00:39:20;;;;;;;;;;;;;;;23.99;43.25;168823.25;6343621;22;20197;-96
2022/03/28 00:41:50;;;;;;;;;;;;;;;23.98;43.67;168820.47;6340823;22;20001;-96
2022/03/28 00:44:17;;;;;;;;;;;;;;;23.99;43.68;168823.25;6343238;22;19972;-96
2022/03/28 00:46:44;;;;;;;;;;;;;;;24.02;43.45;168831.59;6345445;22;20186;-96
2022/03/28 00:49:11;;;;;;;;;;;;;;;24.01;43.59;168830.22;6344275;22;19953;-96
2022/03/28 00:51:37;;;;;;;;;;;;;;;23.97;43.73;168817.69;6344001;22;20201;-96
2022/03/28 00:54:05;;;;;;;;;;;;;;;23.98;43.92;168820.47;6344550;22;19926;-96
2022/03/28 00:56:32;;;;;;;;;;;;;;;24.01;43.66;168828.81;6343585;22;19919;-96
2022/03/28 00:58:59;;;;;;;;;;;;;;;24.01;43.60;168828.81;6345300;22;19925;-96
2022/03/28 01:01:26;;;;;;;;;;;;;;;23.97;43.63;168817.69;6343753;22;19941;-96
2022/03/28 01:03:53;;;;;;;;;;;;;;;23.96;43.89;168814.94;6345758;22;19919;-96
2022/03/28 01:06:20;;;;;;;;;;;;;;;23.98;43.82;168821.84;6343700;22;20303;-96
2022/03/28 01:08:48;;;;;;;;;;;;;;;24.00;43.53;168827.44;6343449;22;19925;-96
2022/03/28 01:11:17;;;;;;;;;;;;;;;24.00;43.67;168827.44;6345028;22;19925;-96
2022/03/28 01:13:45;;;;;;;;;;;;;;;23.95;43.83;168813.53;6343286;22;19918;-96
2022/03/28 01:16:13;;;;;;;;;;;;;;;23.98;44.17;168820.47;6345313;22;19919;-96
2022/03/28 01:18:50;;;;;;;;;;;;;;;23.99;43.82;168824.63;6343494;22;20300;-96
2022/03/28 01:21:17;;;;;;;;;;;;;;;23.99;43.94;168824.63;6345412;22;19997;-96
2022/03/28 01:23:45;;;;;;;;;;;;;;;23.97;43.86;168817.69;6344493;22;19926;-96
2022/03/28 01:26:14;;;;;;;;;;;;;;;23.97;44.18;168817.69;6343497;22;19985;-96
2022/03/28 01:28:41;;;;;;;;;;;;;;;23.99;43.83;168824.63;6345126;22;19918;-96
2022/03/28 01:31:08;;;;;;;;;;;;;;;23.99;43.77;168823.25;6343952;22;19942;-96
2022/03/28 01:33:35;;;;;;;;;;;;;;;23.96;43.85;168814.94;6345483;22;19918;-96
2022/03/28 01:36:02;;;;;;;;;;;;;;;23.95;43.96;168813.53;6344979;22;19941;-96
2022/03/28 01:38:29;;;;;;;;;;;;;;;24.00;44.00;168827.44;6345403;22;19926;-96
2022/03/28 01:40:56;;;;;;;;;;;;;;;24.00;44.01;168827.44;6343931;22;19933;-96
2022/03/28 01:43:23;;;;;;;;;;;;;;;23.96;43.94;168814.94;6343687;22;20170;-96
2022/03/28 01:45:50;;;;;;;;;;;;;;;23.94;44.26;168809.38;6345415;22;19919;-96
2022/03/28 01:48:17;;;;;;;;;;;;;;;23.98;43.94;168820.47;6343892;22;19925;-96
2022/03/28 01:50:44;;;;;;;;;;;;;;;23.98;43.86;168821.84;6347263;22;19919;-96
2022/03/28 01:53:11;;;;;;;;;;;;;;;23.95;44.07;168812.16;6347376;22;19918;-96
2022/03/28 01:55:39;;;;;;;;;;;;;;;23.95;44.17;168812.16;6346933;22;19926;-96
2022/03/28 01:58:06;;;;;;;;;;;;;;;23.98;44.02;168820.47;6348556;22;19923;-96
2022/03/28 02:00:33;;;;;;;;;;;;;;;23.97;43.96;168819.09;6346878;22;19949;-96
2022/03/28 02:03:00;;;;;;;;;;;;;;;23.96;43.94;168816.31;6348133;22;19944;-96
2022/03/28 02:05:28;;;;;;;;;;;;;;;23.94;44.09;168810.78;6346639;22;19973;-96
2022/03/28 02:07:54;;;;;;;;;;;;;;;23.97;44.19;168819.09;6345342;22;19919;-96
2022/03/28 02:10:21;;;;;;;;;;;;;;;23.98;43.97;168820.47;6344574;22;19923;-96
2022/03/28 02:12:48;;;;;;;;;;;;;;;23.97;43.93;168817.69;6349754;22;19925;-96
2022/03/28 02:15:16;;;;;;;;;;;;;;;23.94;44.19;168809.38;6350982;22;19918;-96
2022/03/28 02:17:42;;;;;;;;;;;;;;;23.94;44.17;168810.78;6351037;22;20269;-96
2022/03/28 02:20:11;;;;;;;;;;;;;;;23.95;43.97;168813.53;6350867;22;19948;-96
2022/03/28 02:22:39;;;;;;;;;;;;;;;23.96;44.06;168814.94;6324767;22;20151;-96
2022/03/28 02:25:07;;;;;;;;;;;;;;;23.92;44.04;168805.22;6349788;22;19918;-96
2022/03/28 02:27:34;;;;;;;;;;;;;;;23.91;44.34;168802.47;6349315;22;19919;-96
2022/03/28 02:30:02;;;;;;;;;;;;;;;23.95;44.26;168812.16;6350230;22;19932;-96
2022/03/28 02:32:29;;;;;;;;;;;;;;;23.94;44.01;168810.78;6352307;22;20264;-96
2022/03/28 02:34:56;;;;;;;;;;;;;;;23.90;44.04;168799.66;6349401;22;19918;-96
2022/03/28 02:37:23;;;;;;;;;;;;;;;23.90;44.24;168801.03;6351040;22;19951;-96
2022/03/28 02:39:50;;;;;;;;;;;;;;;23.93;44.16;168806.63;6350117;22;19930;-96
2022/03/28 02:42:22;;;;;;;;;;;;;;;23.94;43.98;168809.38;6350902;22;19985;-96
2022/03/28 02:44:52;;;;;;;;;;;;;;;23.93;44.08;168806.63;6349588;22;19967;-96
2022/03/28 02:47:19;;;;;;;;;;;;;;;23.90;44.17;168799.66;6349303;22;19993;-96
2022/03/28 02:49:46;;;;;;;;;;;;;;;23.93;44.16;168806.63;6350420;22;19918;-96
2022/03/28 02:52:13;;;;;;;;;;;;;;;23.93;43.98;168808.00;6350227;22;19918;-96
2022/03/28 02:54:40;;;;;;;;;;;;;;;23.91;44.01;168803.84;6349938;22;19938;-96
2022/03/28 02:57:08;;;;;;;;;;;;;;;23.86;44.20;168789.97;6348578;22;19925;-96
2022/03/28 02:59:34;;;;;;;;;;;;;;;23.89;44.25;168798.31;6348705;22;19918;-96
2022/03/28 03:02:02;;;;;;;;;;;;;;;23.91;44.06;168803.84;6350821;22;19919;-96
2022/03/28 03:04:31;;;;;;;;;;;;;;;23.91;44.16;168803.84;6350354;22;19998;-96
2022/03/28 03:06:58;;;;;;;;;;;;;;;23.87;44.19;168791.34;6350559;22;19918;-96
2022/03/28 03:09:25;;;;;;;;;;;;;;;23.86;44.24;168789.97;6349074;22;19918;-96
2022/03/28 03:11:53;;;;;;;;;;;;;;;23.90;44.27;168801.03;6324019;22;19918;-96
2022/03/28 03:14:19;;;;;;;;;;;;;;;23.91;44.12;168803.84;6350048;22;20091;-96
2022/03/28 03:16:47;;;;;;;;;;;;;;;23.88;44.16;168795.50;6351383;22;19918;-96
2022/03/28 03:19:14;;;;;;;;;;;;;;;23.87;44.40;168791.34;6353910;22;19937;-96
2022/03/28 03:21:40;;;;;;;;;;;;;;;23.90;44.07;168799.66;6352244;22;19929;-96
2022/03/28 03:24:07;;;;;;;;;;;;;;;23.90;44.06;168801.03;6355588;22;19980;-96
2022/03/28 03:26:34;;;;;;;;;;;;;;;23.90;44.06;168801.03;6354560;22;19918;-96
2022/03/28 03:29:01;;;;;;;;;;;;;;;23.87;44.10;168792.72;6356904;22;19941;-96
2022/03/28 03:31:28;;;;;;;;;;;;;;;23.89;44.31;168798.31;6355402;22;19918;-96
2022/03/28 03:33:54;;;;;;;;;;;;;;;23.90;44.10;168799.66;6354924;22;19919;-96
2022/03/28 03:36:23;;;;;;;;;;;;;;;23.89;44.06;168798.31;6356391;22;19919;-96
2022/03/28 03:42:22;;;;;;;;;;;;;;;23.83;44.31;168781.56;6378861;22;19929;-96
2022/03/28 03:44:49;;;;;;;;;;;;;;;23.88;44.23;168794.13;6351865;22;19925;-96
2022/03/28 03:47:15;;;;;;;;;;;;;;;23.83;44.38;168781.56;6321818;22;19924;-96
2022/03/28 03:49:42;;;;;;;;;;;;;;;23.85;44.52;168787.19;6347922;22;19918;-96
2022/03/28 03:52:10;;;;;;;;;;;;;;;23.86;44.25;168789.97;6348025;22;19921;-96
2022/03/28 03:54:37;;;;;;;;;;;;;;;23.88;44.30;168794.13;6347493;22;20228;-96
2022/03/28 03:57:05;;;;;;;;;;;;;;;23.87;44.22;168791.34;6374524;22;19929;-96
2022/03/28 03:59:33;;;;;;;;;;;;;;;23.84;44.42;168784.34;6348451;22;19918;-96
2022/03/28 04:02:00;;;;;;;;;;;;;;;23.87;44.38;168792.72;6348037;22;19926;-96
2022/03/28 04:04:27;;;;;;;;;;;;;;;23.87;44.20;168792.72;6348651;22;20289;-96
2022/03/28 04:06:55;;;;;;;;;;;;;;;23.88;44.27;168794.13;6348147;22;19918;-96
2022/03/28 04:09:21;;;;;;;;;;;;;;;23.84;44.38;168782.97;6348478;22;20216;-96
2022/03/28 04:11:49;;;;;;;;;;;;;;;23.85;44.54;168787.19;6354300;22;19922;-96
2022/03/28 12:15:24;;;;;;;;;;;;;;;23.44;35.20;168674.75;6284381;22;20250;-96
2022/03/28 13:42:09;;;;;;;;;;;;;;;23.37;36.37;168656.69;6348625;22;20296;-96
2022/03/28 13:44:39;;;;;;;;;;;;;;;23.42;36.51;168670.59;6346947;22;19925;-96
2022/03/28 13:47:10;;;;;;;;;;;;;;;23.43;36.76;168673.34;6346767;22;19949;-95
2022/03/28 13:49:39;;;;;;;;;;;;;;;23.46;36.77;168681.72;6345268;22;19945;-96
2022/03/28 13:52:07;;;;;;;;;;;;;;;23.48;36.88;168685.88;6346895;22;19918;-96
2022/03/28 13:54:36;;;;;;;;;;;;;;;23.45;37.06;168678.91;6346901;22;19918;-96
2022/03/28 13:57:03;;;;;;;;;;;;;;;23.45;37.00;168678.91;6346968;22;19929;-96
2022/03/28 13:59:34;;;;;;;;;;;;;;;23.49;36.85;168688.59;6349470;22;19919;-96
2022/03/28 14:02:01;;;;;;;;;;;;;;;23.50;36.64;168691.41;6346833;22;19985;-96
2022/03/28 14:04:27;;;;;;;;;;;;;;;23.47;36.88;168683.06;6347250;22;19918;-96
2022/03/28 14:06:56;;;;;;;;;;;;;;;23.49;36.94;168688.59;6348111;22;19922;-96
2022/03/28 14:09:23;;;;;;;;;;;;;;;23.46;37.02;168681.72;6347286;22;19989;-96
2022/03/28 14:14:38;;;;;;;;;;;;;;;23.39;37.66;168662.28;6351099;22;19925;-96
2022/03/28 14:17:08;;;;;;;;;;;;;;;23.39;37.70;168662.28;6321807;22;19938;-96
2022/03/28 14:19:36;;;;;;;;;;;;;;;23.37;38.24;168658.13;6317828;22;20038;-96
2022/03/28 14:22:05;;;;;;;;;;;;;;;23.37;38.32;168658.13;6318864;22;19945;-96
2022/03/28 14:24:46;;;;;;;;;;;;;;;23.48;38.14;168687.25;6298227;22;19954;-96
2022/03/28 14:27:24;;;;;;;;;;;;;;;23.45;38.01;168677.53;6322556;22;19919;-96
2022/03/28 14:29:59;;;;;;;;;;;;;;;23.45;38.00;168678.91;6322901;22;19978;-96
2022/03/28 14:32:41;;;;;;;;;;;;;;;23.42;37.98;168670.59;6317520;22;19918;-96
2022/03/28 14:35:15;;;;;;;;;;;;;;;23.54;37.74;168703.88;6297061;22;19937;-96
2022/03/28 14:37:48;;;;;;;;;;;;;;;23.52;37.90;168696.91;6322062;22;19923;-96
2022/03/28 14:40:19;;;;;;;;;;;;;;;23.48;37.83;168687.25;6320795;22;19919;-96
2022/03/28 14:42:46;;;;;;;;;;;;;;;23.49;37.93;168688.59;6320495;22;19919;-96
2022/03/28 14:45:19;;;;;;;;;;;;;;;23.61;37.70;168720.50;6315250;22;19935;-96
2022/03/28 14:47:48;;;;;;;;;;;;;;;23.64;37.63;168730.25;6290965;22;19927;-96
2022/03/28 14:50:16;;;;;;;;;;;;;;;23.63;37.72;168726.09;6315978;22;19919;-96
2022/03/28 14:52:49;;;;;;;;;;;;;;;23.61;37.74;168720.50;6316555;22;19936;-96
2022/03/28 14:55:17;;;;;;;;;;;;;;;23.60;37.77;168717.78;6316275;22;20293;-96
2022/03/28 14:57:47;;;;;;;;;;;;;;;23.64;37.56;168730.25;6317812;22;19973;-96
2022/03/28 15:00:17;;;;;;;;;;;;;;;23.66;37.55;168735.78;6290044;22;19919;-96
2022/03/28 15:02:45;;;;;;;;;;;;;;;23.63;37.59;168726.09;6290601;22;20151;-96
2022/03/28 15:05:18;;;;;;;;;;;;;;;23.63;37.57;168726.09;6316125;22;19939;-96
2022/03/28 15:11:30;;;;;;;;;;;;;;;23.59;37.64;168715.00;6333058;22;19926;-96
2022/03/28 15:18:21;;;;;;;;;;;;;;;23.58;37.67;168712.19;6333100;22;19937;-96
2022/03/28 15:29:53;;;;;;;;;;;;;;;23.58;37.70;168713.63;6329107;22;19941;-97
2022/03/28 15:36:16;;;;;;;;;;;;;;;23.41;37.92;168667.81;6301124;22;19923;-96
2022/03/28 15:38:58;;;;;;;;;;;;;;;23.50;38.01;168692.75;6284687;22;19971;-96
2022/03/28 15:41:27;;;;;;;;;;;;;;;23.48;38.09;168687.25;6297694;22;19923;-97
2022/03/28 15:43:56;;;;;;;;;;;;;;;23.63;38.05;168726.09;6296716;22;20298;-97
2022/03/28 15:50:08;;;;;;;;;;;;;;;23.54;38.31;168703.88;6323491;22;19951;-97
2022/03/28 15:52:52;;;;;;;;;;;;;;;23.47;38.46;168684.44;6241405;23;19919;-96
2022/03/28 15:55:23;;;;;;;;;;;;;;;23.49;38.40;168690.03;6232443;23;19963;-96
2022/03/28 15:57:52;;;;;;;;;;;;;;;23.60;38.25;168719.16;6227460;23;20301;-96
2022/03/28 16:00:19;;;;;;;;;;;;;;;23.64;38.35;168728.84;6226758;23;20002;-96
2022/03/28 16:02:57;;;;;;;;;;;;;;;23.68;38.41;168741.31;6230785;23;19920;-96
2022/03/28 16:09:21;;;;;;;;;;;;;;;23.68;38.82;168739.94;6255471;23;19990;-96
2022/03/28 16:11:54;;;;;;;;;;;;;;;23.65;39.04;168733.00;6252144;23;19942;-96
2022/03/28 16:14:29;;;;;;;;;;;;;;;23.67;39.00;168738.56;6233400;23;19923;-96
2022/03/28 16:16:57;;;;;;;;;;;;;;;23.69;38.92;168742.75;6231110;23;19969;-96
2022/03/28 16:19:27;;;;;;;;;;;;;;;23.71;38.85;168748.28;6230514;23;19940;-96
2022/03/28 16:21:54;;;;;;;;;;;;;;;23.73;39.04;168753.84;6227705;23;19920;-96
2022/03/28 16:24:24;;;;;;;;;;;;;;;23.72;38.98;168752.44;6225867;23;19919;-96
2022/03/28 16:26:54;;;;;;;;;;;;;;;23.74;39.30;168756.59;6226143;23;19926;-96
2022/03/28 16:29:27;;;;;;;;;;;;;;;23.76;39.15;168760.75;6264017;23;20226;-96
2022/03/28 16:32:02;;;;;;;;;;;;;;;23.79;38.87;168770.50;6227679;23;19935;-96
2022/03/28 16:34:30;;;;;;;;;;;;;;;23.80;39.08;168773.22;6251068;23;19920;-96
2022/03/28 17:05:56;;;;;;;;;;;;;;;24.18;39.84;168874.63;6317672;22;19918;-96
2022/03/28 17:08:26;;;;;;;;;;;;;;;24.32;39.57;168912.09;6318244;22;19925;-96
2022/03/28 17:10:57;;;;;;;;;;;;;;;24.16;39.95;168870.47;6316387;22;19919;-96
2022/03/28 17:13:27;;;;;;;;;;;;;;;24.09;40.42;168852.41;6312409;22;19938;-96
2022/03/28 17:15:55;;;;;;;;;;;;;;;24.08;40.49;168849.59;6315961;22;19994;-96
2022/03/28 17:18:26;;;;;;;;;;;;;;;24.11;40.19;168856.56;6314912;22;19919;-96
2022/03/28 17:20:56;;;;;;;;;;;;;;;24.16;39.93;168869.03;6313224;22;20002;-96
2022/03/28 17:23:25;;;;;;;;;;;;;;;24.11;39.96;168856.56;6313843;22;19972;-96
2022/03/28 17:25:53;;;;;;;;;;;;;;;23.87;40.38;168792.72;6318126;22;19919;-96
2022/03/28 17:28:21;;;;;;;;;;;;;;;23.72;41.36;168752.44;6303600;22;19997;-93
2022/03/28 17:30:48;;;;;;;;;;;;;;;23.81;40.77;168776.03;6294456;22;19973;-92
2022/03/28 17:33:14;;;;;;;;;;;;;;;23.84;40.44;168784.34;6230698;22;19973;-93
2022/03/28 17:35:41;;;;;;;;;;;;;;;23.82;40.41;168778.81;6310259;22;19930;-92
2022/03/28 17:38:08;;;;;;;;;;;;;;;23.82;40.57;168777.41;6305933;22;19923;-93
2022/03/28 17:40:34;;;;;;;;;;;;;;;23.82;40.57;168778.81;6304010;22;20343;-92
2022/03/28 17:43:10;;;;;;;;;;;;;;;23.84;40.22;168784.34;6299140;22;19932;-93
2022/03/28 17:45:38;;;;;;;;;;;;;;;23.82;40.23;168777.41;6304618;22;20176;-93
2022/03/28 17:48:05;;;;;;;;;;;;;;;23.85;40.38;168787.19;6293235;22;20317;-92
2022/03/28 17:50:34;;;;;;;;;;;;;;;23.71;40.47;168749.69;6305663;22;19923;-92
2022/03/28 17:53:01;;;;;;;;;;;;;;;23.87;40.15;168792.72;6296927;22;20315;-92
2022/03/28 17:55:28;;;;;;;;;;;;;;;23.95;39.62;168812.16;6304617;22;19922;-93
2022/03/28 17:57:56;;;;;;;;;;;;;;;23.91;39.54;168803.84;6303651;22;19919;-92
2022/03/28 18:00:23;;;;;;;;;;;;;;;23.80;40.18;168773.22;6295320;22;19987;-91
2022/03/28 18:02:50;;;;;;;;;;;;;;;23.78;39.64;168767.69;6305948;22;19922;-94
2022/03/28 18:05:18;;;;;;;;;;;;;;;23.86;39.46;168789.97;6299377;22;19930;-94
2022/03/28 18:07:45;;;;;;;;;;;;;;;23.89;39.35;168796.88;6305736;22;19919;-94
2022/03/28 18:10:13;;;;;;;;;;;;;;;23.74;39.62;168756.59;6292266;22;19992;-92
2022/03/28 18:12:40;;;;;;;;;;;;;;;23.71;39.75;168749.69;6301361;22;19927;-93
2022/03/28 18:15:09;;;;;;;;;;;;;;;23.67;39.73;168737.16;6278467;22;19923;-93
2022/03/28 18:17:37;;;;;;;;;;;;;;;23.71;39.82;168749.69;6295283;22;19946;-91
2022/03/28 18:20:05;;;;;;;;;;;;;;;23.62;40.21;168723.31;6304123;22;19919;-93
2022/03/28 18:22:31;;;;;;;;;;;;;;;23.67;40.05;168738.56;6295593;22;19968;-93
2022/03/28 18:24:58;;;;;;;;;;;;;;;23.67;39.92;168737.16;6303393;22;19922;-93
2022/03/28 18:27:24;;;;;;;;;;;;;;;23.72;40.13;168751.06;6302720;22;19930;-94
2022/03/28 18:29:51;;;;;;;;;;;;;;;23.70;40.10;168746.91;6297459;22;20337;-94
2022/03/28 18:32:18;;;;;;;;;;;;;;;23.70;40.10;168745.47;6302815;22;20012;-92
2022/03/28 18:34:45;;;;;;;;;;;;;;;23.71;40.24;168749.69;6294195;22;19927;-91
2022/03/28 18:37:16;;;;;;;;;;;;;;;23.58;40.47;168713.63;6303176;22;19934;-91
2022/03/28 18:39:43;;;;;;;;;;;;;;;23.67;40.20;168737.16;6293742;22;20286;-91
2022/03/28 18:42:10;;;;;;;;;;;;;;;23.68;40.02;168739.94;6300414;22;19923;-90
2022/03/28 18:44:37;;;;;;;;;;;;;;;23.65;39.95;168731.63;6303656;22;19923;-91
2022/03/28 18:47:06;;;;;;;;;;;;;;;23.65;39.90;168731.63;6293643;22;19933;-91
2022/03/28 18:49:33;;;;;;;;;;;;;;;23.64;39.86;168730.25;6303078;22;20190;-91
2022/03/28 18:51:59;;;;;;;;;;;;;;;23.67;40.04;168737.16;6294351;22;19923;-91
2022/03/28 18:54:26;;;;;;;;;;;;;;;23.66;39.58;168734.41;6303777;22;20310;-91
2022/03/28 18:56:59;;;;;;;;;;;;;;;23.70;39.61;168745.47;6302847;22;19931;-92
2022/03/28 18:59:29;;;;;;;;;;;;;;;23.70;39.48;168745.47;6294346;22;20298;-92
2022/03/28 19:02:00;;;;;;;;;;;;;;;23.73;39.52;168753.84;6302301;22;19980;-92
2022/03/28 19:04:27;;;;;;;;;;;;;;;23.78;39.44;168767.69;6294971;22;19918;-92
2022/03/28 19:06:54;;;;;;;;;;;;;;;23.75;39.49;168759.38;6302096;22;20070;-92
2022/03/28 19:09:21;;;;;;;;;;;;;;;23.73;39.74;168753.84;6295155;22;19923;-90
2022/03/28 19:11:48;;;;;;;;;;;;;;;23.70;39.81;168745.47;6299249;22;20045;-92
2022/03/28 19:14:15;;;;;;;;;;;;;;;23.65;39.89;168731.63;6302496;22;19974;-93
2022/03/28 19:16:42;;;;;;;;;;;;;;;23.66;40.08;168734.41;6293084;22;20006;-93
2022/03/28 19:19:12;;;;;;;;;;;;;;;23.66;40.14;168734.41;6303344;22;19930;-93
2022/03/28 19:21:39;;;;;;;;;;;;;;;23.70;40.07;168746.91;6296459;22;19925;-93
2022/03/28 19:24:08;;;;;;;;;;;;;;;23.71;39.96;168749.69;6304259;22;20194;-93
2022/03/28 19:26:38;;;;;;;;;;;;;;;23.72;39.95;168751.06;6304342;22;20274;-93
2022/03/28 19:29:05;;;;;;;;;;;;;;;23.72;40.03;168751.06;6295742;22;20310;-91
2022/03/28 19:31:31;;;;;;;;;;;;;;;23.71;39.98;168748.28;6303578;22;19923;-92
2022/03/28 19:33:58;;;;;;;;;;;;;;;23.77;39.88;168763.53;6290871;22;19926;-91
2022/03/28 19:36:25;;;;;;;;;;;;;;;23.77;39.95;168764.91;6302540;22;20175;-92
2022/03/28 19:38:51;;;;;;;;;;;;;;;23.77;40.12;168764.91;6298829;22;19980;-92
2022/03/28 19:41:20;;;;;;;;;;;;;;;23.77;39.94;168764.91;6300884;22;19923;-94
2022/03/28 19:43:47;;;;;;;;;;;;;;;23.76;39.93;168760.75;6304544;22;19996;-92
2022/03/28 19:46:14;;;;;;;;;;;;;;;23.75;40.14;168759.38;6295148;22;19926;-93
2022/03/28 19:49:01;;;;;;;;;;;;;;;23.69;40.33;168742.75;6305101;22;19927;-93
2022/03/28 19:51:27;;;;;;;;;;;;;;;23.75;39.98;168759.38;6295386;22;20202;-93
2022/03/28 19:53:54;;;;;;;;;;;;;;;23.77;39.90;168763.53;6303910;22;19919;-92
2022/03/28 19:56:21;;;;;;;;;;;;;;;23.76;39.98;168762.16;6303752;22;20467;-92
2022/03/28 19:58:48;;;;;;;;;;;;;;;23.79;39.98;168770.50;6296852;22;19926;-93
2022/03/28 20:01:17;;;;;;;;;;;;;;;23.79;40.11;168770.50;6308587;22;19930;-93
2022/03/28 20:03:44;;;;;;;;;;;;;;;23.80;40.12;168773.22;6295420;22;19998;-92
2022/03/28 20:06:11;;;;;;;;;;;;;;;23.78;39.99;168766.34;6303675;22;19923;-92
2022/03/28 20:08:38;;;;;;;;;;;;;;;23.75;40.10;168759.38;6298031;22;19919;-93
2022/03/28 20:11:10;;;;;;;;;;;;;;;23.76;40.05;168762.16;6302716;22;19945;-93
2022/03/28 20:13:38;;;;;;;;;;;;;;;23.78;39.97;168766.34;6304772;22;19945;-93
2022/03/28 20:16:08;;;;;;;;;;;;;;;23.79;39.95;168769.06;6292643;22;19927;-92
2022/03/28 20:18:37;;;;;;;;;;;;;;;23.80;40.00;168771.88;6304475;22;20230;-93
2022/03/28 20:21:04;;;;;;;;;;;;;;;23.79;40.05;168770.50;6293803;22;19919;-93
2022/03/28 20:23:30;;;;;;;;;;;;;;;23.81;40.09;168774.66;6306353;22;19919;-93
2022/03/28 20:25:57;;;;;;;;;;;;;;;23.79;40.18;168770.50;6302468;22;19923;-91
2022/03/28 20:28:28;;;;;;;;;;;;;;;23.72;40.24;168751.06;6297174;22;19976;-93
2022/03/28 20:30:54;;;;;;;;;;;;;;;23.73;40.17;168753.84;6302821;22;20190;-92
2022/03/28 20:33:21;;;;;;;;;;;;;;;23.55;40.69;168705.25;6289222;22;19927;-92
2022/03/28 20:35:48;;;;;;;;;;;;;;;23.55;40.92;168705.25;6301083;22;19976;-92
2022/03/28 20:38:14;;;;;;;;;;;;;;;23.55;40.65;168706.66;6291407;22;20731;-92
2022/03/28 20:40:41;;;;;;;;;;;;;;;23.52;40.84;168696.91;6302451;22;20248;-93
2022/03/28 20:43:07;;;;;;;;;;;;;;;23.48;41.24;168685.88;6302950;22;19934;-93
2022/03/28 20:45:34;;;;;;;;;;;;;;;23.48;41.25;168687.25;6293202;22;20223;-93
2022/03/28 20:48:01;;;;;;;;;;;;;;;23.51;41.44;168694.19;6302491;22;19922;-93
2022/03/28 20:50:28;;;;;;;;;;;;;;;23.54;41.26;168702.50;6295377;22;20217;-93
2022/03/28 20:52:54;;;;;;;;;;;;;;;23.50;41.37;168691.41;6298738;22;19922;-93
2022/03/28 20:55:21;;;;;;;;;;;;;;;23.48;41.54;168687.25;6287243;22;20002;-93
2022/03/28 20:57:48;;;;;;;;;;;;;;;23.49;41.53;168690.03;6295268;22;19977;-92
2022/03/28 21:00:15;;;;;;;;;;;;;;;23.49;41.62;168688.59;6296414;22;19926;-93
2022/03/28 21:02:50;;;;;;;;;;;;;;;23.55;41.51;168706.66;6291609;22;20266;-92
2022/03/28 21:05:20;;;;;;;;;;;;;;;23.52;41.54;168696.91;6301243;22;19949;-93
2022/03/28 21:07:46;;;;;;;;;;;;;;;23.49;41.86;168690.03;6291698;22;19972;-93
2022/03/28 21:10:14;;;;;;;;;;;;;;;23.48;41.88;168685.88;6300187;22;19972;-93
2022/03/28 21:12:40;;;;;;;;;;;;;;;23.45;41.99;168677.53;6301909;22;20005;-93
2022/03/28 21:15:07;;;;;;;;;;;;;;;23.55;41.77;168706.66;6286907;22;19919;-93
2022/03/28 21:17:34;;;;;;;;;;;;;;;23.54;41.70;168703.88;6302309;22;20269;-91
2022/03/28 21:20:03;;;;;;;;;;;;;;;23.49;42.00;168688.59;6290796;22;19922;-93
2022/03/28 21:22:29;;;;;;;;;;;;;;;23.49;42.15;168690.03;6303205;22;19927;-93
2022/03/28 21:24:56;;;;;;;;;;;;;;;23.45;42.51;168678.91;6292344;22;19930;-93
2022/03/28 21:27:23;;;;;;;;;;;;;;;23.67;41.95;168737.16;6302781;22;19927;-93
2022/03/28 21:29:49;;;;;;;;;;;;;;;23.77;40.93;168764.91;6301220;22;19935;-93
2022/03/28 21:32:17;;;;;;;;;;;;;;;23.62;41.40;168723.31;6293098;22;20230;-93
2022/03/28 21:34:45;;;;;;;;;;;;;;;23.58;41.67;168712.19;6303318;22;19942;-94
2022/03/28 21:37:13;;;;;;;;;;;;;;;23.58;41.58;168712.19;6291735;22;19919;-93
2022/03/28 21:39:44;;;;;;;;;;;;;;;23.51;41.84;168695.56;6303188;22;19986;-94
2022/03/28 21:42:14;;;;;;;;;;;;;;;23.48;42.18;168687.25;6303081;22;19923;-94
2022/03/28 21:44:41;;;;;;;;;;;;;;;23.48;42.10;168687.25;6296940;22;19929;-93
2022/03/28 21:47:08;;;;;;;;;;;;;;;23.52;42.13;168698.34;6302198;22;19919;-93
2022/03/28 21:49:34;;;;;;;;;;;;;;;23.55;42.16;168706.66;6292888;22;19919;-94
2022/03/28 21:52:01;;;;;;;;;;;;;;;23.50;41.99;168692.75;6302150;22;19984;-93
2022/03/28 21:54:28;;;;;;;;;;;;;;;23.49;42.44;168690.03;6293812;22;19923;-93
2022/03/28 21:56:54;;;;;;;;;;;;;;;23.49;42.38;168690.03;6302597;22;19972;-94
2022/03/28 21:59:21;;;;;;;;;;;;;;;23.48;42.64;168685.88;6303153;22;20160;-93
2022/03/28 22:01:47;;;;;;;;;;;;;;;23.54;42.39;168703.88;6295191;22;20367;-93
2022/03/28 22:04:14;;;;;;;;;;;;;;;23.53;42.37;168699.72;6301811;22;19945;-93
2022/03/28 22:06:41;;;;;;;;;;;;;;;23.49;42.58;168688.59;6295004;22;19923;-94
2022/03/28 22:09:08;;;;;;;;;;;;;;;23.48;42.53;168687.25;6304031;22;19919;-94
2022/03/28 22:11:36;;;;;;;;;;;;;;;23.47;42.79;168683.06;6303532;22;19919;-93
2022/03/28 22:14:02;;;;;;;;;;;;;;;23.55;42.48;168705.25;6291861;22;20332;-93
2022/03/28 22:16:29;;;;;;;;;;;;;;;23.55;42.50;168706.66;6303318;22;19922;-93
2022/03/28 22:18:55;;;;;;;;;;;;;;;23.50;42.48;168692.75;6294912;22;20239;-94
2022/03/28 22:21:22;;;;;;;;;;;;;;;23.49;42.67;168688.59;6305276;22;19953;-93
2022/03/28 22:23:52;;;;;;;;;;;;;;;23.48;42.56;168687.25;6296408;22;19929;-93
2022/03/28 22:26:18;;;;;;;;;;;;;;;23.51;42.62;168695.56;6306042;22;19923;-94
2022/03/28 22:28:45;;;;;;;;;;;;;;;23.56;42.52;168708.03;6308385;22;19926;-94
2022/03/28 22:31:11;;;;;;;;;;;;;;;23.52;42.68;168698.34;6301875;22;19929;-94
2022/03/28 22:33:38;;;;;;;;;;;;;;;23.49;42.44;168690.03;6309051;22;20390;-93
2022/03/28 22:36:05;;;;;;;;;;;;;;;23.49;42.83;168690.03;6300073;22;19974;-93
2022/03/28 22:38:32;;;;;;;;;;;;;;;23.48;42.76;168687.25;6304658;22;19944;-94
2022/03/28 22:40:58;;;;;;;;;;;;;;;23.55;42.56;168705.25;6298850;22;19930;-94
2022/03/28 22:43:25;;;;;;;;;;;;;;;23.55;42.42;168706.66;6303017;22;19919;-94
2022/03/28 22:45:52;;;;;;;;;;;;;;;23.50;42.71;168691.41;6303136;22;19945;-94
2022/03/28 22:48:18;;;;;;;;;;;;;;;23.49;42.63;168690.03;6291435;22;19927;-93
2022/03/28 22:50:45;;;;;;;;;;;;;;;23.50;42.79;168692.75;6302343;22;20171;-93
2022/03/28 22:53:15;;;;;;;;;;;;;;;23.51;42.76;168695.56;6291199;22;19926;-93
2022/03/28 22:55:41;;;;;;;;;;;;;;;23.55;42.58;168705.25;6302189;22;19923;-93
2022/03/28 22:58:10;;;;;;;;;;;;;;;23.48;42.68;168687.25;6300564;22;19926;-93
2022/03/28 23:00:41;;;;;;;;;;;;;;;23.48;42.63;168687.25;6290225;22;19919;-93
2022/03/28 23:03:08;;;;;;;;;;;;;;;23.45;42.84;168678.91;6300592;22;19945;-93
2022/03/28 23:05:35;;;;;;;;;;;;;;;23.50;42.82;168692.75;6290933;22;19960;-93
2022/03/28 23:08:01;;;;;;;;;;;;;;;23.56;42.75;168708.03;6301553;22;20230;-94
2022/03/28 23:10:28;;;;;;;;;;;;;;;23.50;42.73;168691.41;6290089;22;19919;-93